sensor_id;sensor_type;location;lat;lon;timestamp;pressure;altitude;pressure_sealevel;temperature;humidity
51417;BME280;50158;51.528;6.982;2022-11-02T00:00:13;67790;;;13.05;100
51417;BME280;50158;51.528;6.982;2022-11-02T00:01:18;67790;;;13.05;100
51417;BME280;50158;51.528;6.982;2022-11-02T00:02:13;67780;;;12.97;100
51417;BME280;50158;51.528;6.982;2022-11-02T00:03:12;67780;;;13;100
51417;BME280;50158;51.528;6.982;2022-11-02T00:04:13;67790;;;13.01;100
51417;BME280;50158;51.528;6.982;2022-11-02T00:05:13;67790;;;13.01;100
51417;BME280;50158;51.528;6.982;2022-11-02T00:06:12;67790;;;13.02;100
51417;BME280;50158;51.528;6.982;2022-11-02T00:07:12;67780;;;13;100
51417;BME280;50158;51.528;6.982;2022-11-02T00:08:13;67790;;;13.03;100
51417;BME280;50158;51.528;6.982;2022-11-02T00:09:13;67790;;;13.07;100
51417;BME280;50158;51.528;6.982;2022-11-02T00:10:13;67790;;;13.01;100
51417;BME280;50158;51.528;6.982;2022-11-02T00:11:12;67790;;;13.01;100
51417;BME280;50158;51.528;6.982;2022-11-02T00:12:12;67780;;;12.99;100
51417;BME280;50158;51.528;6.982;2022-11-02T00:13:13;67790;;;13.02;100
51417;BME280;50158;51.528;6.982;2022-11-02T00:14:12;67790;;;13.07;100
51417;BME280;50158;51.528;6.982;2022-11-02T00:15:13;67790;;;13.06;100
51417;BME280;50158;51.528;6.982;2022-11-02T00:16:13;67790;;;13.06;100
51417;BME280;50158;51.528;6.982;2022-11-02T00:17:13;67780;;;12.96;100
51417;BME280;50158;51.528;6.982;2022-11-02T00:18:12;67780;;;12.92;100
51417;BME280;50158;51.528;6.982;2022-11-02T00:19:12;67770;;;12.84;100
51417;BME280;50158;51.528;6.982;2022-11-02T00:20:14;67760;;;12.78;100
51417;BME280;50158;51.528;6.982;2022-11-02T00:21:13;67750;;;12.7;100
51417;BME280;50158;51.528;6.982;2022-11-02T00:22:12;67750;;;12.64;100
51417;BME280;50158;51.528;6.982;2022-11-02T00:24:13;67710;;;12.33;100
51417;BME280;50158;51.528;6.982;2022-11-02T00:25:13;67710;;;12.28;100
51417;BME280;50158;51.528;6.982;2022-11-02T00:26:13;67690;;;12.13;100
51417;BME280;50158;51.528;6.982;2022-11-02T00:27:12;67680;;;12.07;100
51417;BME280;50158;51.528;6.982;2022-11-02T00:28:12;67670;;;11.97;100
51417;BME280;50158;51.528;6.982;2022-11-02T00:29:12;67670;;;11.91;100
51417;BME280;50158;51.528;6.982;2022-11-02T00:30:13;67660;;;11.89;100
51417;BME280;50158;51.528;6.982;2022-11-02T00:31:13;67670;;;11.91;100
51417;BME280;50158;51.528;6.982;2022-11-02T00:32:12;67660;;;11.84;100
51417;BME280;50158;51.528;6.982;2022-11-02T00:33:13;67660;;;11.82;100
51417;BME280;50158;51.528;6.982;2022-11-02T00:34:13;67660;;;11.81;100
51417;BME280;50158;51.528;6.982;2022-11-02T00:35:12;67660;;;11.83;100
51417;BME280;50158;51.528;6.982;2022-11-02T00:36:12;67670;;;11.93;100
51417;BME280;50158;51.528;6.982;2022-11-02T00:37:12;67670;;;11.96;100
51417;BME280;50158;51.528;6.982;2022-11-02T00:38:12;67670;;;11.97;100
51417;BME280;50158;51.528;6.982;2022-11-02T00:39:12;67670;;;11.95;100
51417;BME280;50158;51.528;6.982;2022-11-02T00:40:13;67670;;;11.99;100
51417;BME280;50158;51.528;6.982;2022-11-02T00:41:11;67670;;;11.98;100
51417;BME280;50158;51.528;6.982;2022-11-02T00:42:12;67670;;;11.98;100
51417;BME280;50158;51.528;6.982;2022-11-02T00:43:12;67680;;;12.02;100
51417;BME280;50158;51.528;6.982;2022-11-02T00:44:13;67690;;;12.11;100
51417;BME280;50158;51.528;6.982;2022-11-02T00:45:13;67690;;;12.11;100
51417;BME280;50158;51.528;6.982;2022-11-02T00:46:13;67680;;;12.06;100
51417;BME280;50158;51.528;6.982;2022-11-02T00:47:13;67680;;;12.05;100
51417;BME280;50158;51.528;6.982;2022-11-02T00:48:13;67680;;;12.06;100
51417;BME280;50158;51.528;6.982;2022-11-02T00:49:13;67690;;;12.15;100
51417;BME280;50158;51.528;6.982;2022-11-02T00:50:12;67700;;;12.21;100
51417;BME280;50158;51.528;6.982;2022-11-02T00:51:13;67700;;;12.27;100
51417;BME280;50158;51.528;6.982;2022-11-02T00:52:13;67710;;;12.28;100
51417;BME280;50158;51.528;6.982;2022-11-02T00:53:12;67710;;;12.35;100
51417;BME280;50158;51.528;6.982;2022-11-02T00:54:12;67730;;;12.5;100
51417;BME280;50158;51.528;6.982;2022-11-02T00:55:13;67740;;;12.59;100
51417;BME280;50158;51.528;6.982;2022-11-02T00:56:13;67740;;;12.6;100
51417;BME280;50158;51.528;6.982;2022-11-02T00:57:13;67740;;;12.59;100
51417;BME280;50158;51.528;6.982;2022-11-02T00:58:13;67750;;;12.63;100
51417;BME280;50158;51.528;6.982;2022-11-02T00:59:12;67740;;;12.63;100
51417;BME280;50158;51.528;6.982;2022-11-02T01:00:13;67750;;;12.7;100
51417;BME280;50158;51.528;6.982;2022-11-02T01:01:12;67750;;;12.71;100
51417;BME280;50158;51.528;6.982;2022-11-02T01:02:13;67760;;;12.73;100
51417;BME280;50158;51.528;6.982;2022-11-02T01:03:13;67760;;;12.8;100
51417;BME280;50158;51.528;6.982;2022-11-02T01:04:13;67760;;;12.79;100
51417;BME280;50158;51.528;6.982;2022-11-02T01:05:12;67760;;;12.77;100
51417;BME280;50158;51.528;6.982;2022-11-02T01:06:13;67760;;;12.78;100
51417;BME280;50158;51.528;6.982;2022-11-02T01:07:13;67770;;;12.82;100
51417;BME280;50158;51.528;6.982;2022-11-02T01:08:12;67760;;;12.8;100
51417;BME280;50158;51.528;6.982;2022-11-02T01:09:13;67760;;;12.76;100
51417;BME280;50158;51.528;6.982;2022-11-02T01:10:13;67770;;;12.82;100
51417;BME280;50158;51.528;6.982;2022-11-02T01:11:14;67770;;;12.83;100
51417;BME280;50158;51.528;6.982;2022-11-02T01:12:12;67770;;;12.9;100
51417;BME280;50158;51.528;6.982;2022-11-02T01:13:11;67780;;;12.98;100
51417;BME280;50158;51.528;6.982;2022-11-02T01:14:13;67780;;;12.93;100
51417;BME280;50158;51.528;6.982;2022-11-02T01:15:12;67780;;;12.92;100
51417;BME280;50158;51.528;6.982;2022-11-02T01:16:13;67770;;;12.9;100
51417;BME280;50158;51.528;6.982;2022-11-02T01:17:13;67770;;;12.88;100
51417;BME280;50158;51.528;6.982;2022-11-02T01:18:12;67770;;;12.87;100
51417;BME280;50158;51.528;6.982;2022-11-02T01:19:13;67780;;;12.95;100
51417;BME280;50158;51.528;6.982;2022-11-02T01:20:12;67770;;;12.87;100
51417;BME280;50158;51.528;6.982;2022-11-02T01:21:13;67760;;;12.77;100
51417;BME280;50158;51.528;6.982;2022-11-02T01:22:13;67760;;;12.74;100
51417;BME280;50158;51.528;6.982;2022-11-02T01:23:12;67750;;;12.7;100
51417;BME280;50158;51.528;6.982;2022-11-02T01:25:12;67750;;;12.72;100
51417;BME280;50158;51.528;6.982;2022-11-02T01:26:13;67750;;;12.66;100
51417;BME280;50158;51.528;6.982;2022-11-02T01:27:12;67740;;;12.54;100
51417;BME280;50158;51.528;6.982;2022-11-02T01:28:12;67740;;;12.59;100
51417;BME280;50158;51.528;6.982;2022-11-02T01:29:12;67740;;;12.57;100
51417;BME280;50158;51.528;6.982;2022-11-02T01:30:12;67740;;;12.58;100
51417;BME280;50158;51.528;6.982;2022-11-02T01:31:13;67750;;;12.67;100
51417;BME280;50158;51.528;6.982;2022-11-02T01:32:12;67750;;;12.69;100
51417;BME280;50158;51.528;6.982;2022-11-02T01:33:13;67750;;;12.69;100
51417;BME280;50158;51.528;6.982;2022-11-02T01:34:13;67760;;;12.72;100
51417;BME280;50158;51.528;6.982;2022-11-02T01:35:13;67750;;;12.67;100
51417;BME280;50158;51.528;6.982;2022-11-02T01:36:14;67750;;;12.66;100
51417;BME280;50158;51.528;6.982;2022-11-02T01:37:13;67740;;;12.63;100
51417;BME280;50158;51.528;6.982;2022-11-02T01:38:12;67740;;;12.63;100
51417;BME280;50158;51.528;6.982;2022-11-02T01:39:13;67740;;;12.6;100
51417;BME280;50158;51.528;6.982;2022-11-02T01:40:12;67730;;;12.52;100
51417;BME280;50158;51.528;6.982;2022-11-02T01:41:13;67740;;;12.62;100
51417;BME280;50158;51.528;6.982;2022-11-02T01:42:16;67740;;;12.56;100
51417;BME280;50158;51.528;6.982;2022-11-02T01:43:20;67730;;;12.49;100
51417;BME280;50158;51.528;6.982;2022-11-02T01:44:29;67730;;;12.48;100
51417;BME280;50158;51.528;6.982;2022-11-02T01:45:13;67720;;;12.43;100
51417;BME280;50158;51.528;6.982;2022-11-02T01:46:14;67720;;;12.39;100
51417;BME280;50158;51.528;6.982;2022-11-02T01:47:18;67720;;;12.36;100
51417;BME280;50158;51.528;6.982;2022-11-02T01:48:13;67720;;;12.37;100
51417;BME280;50158;51.528;6.982;2022-11-02T01:49:14;67710;;;12.32;100
51417;BME280;50158;51.528;6.982;2022-11-02T01:51:15;67710;;;12.3;100
51417;BME280;50158;51.528;6.982;2022-11-02T01:52:15;67710;;;12.28;100
51417;BME280;50158;51.528;6.982;2022-11-02T01:53:12;67720;;;12.41;100
51417;BME280;50158;51.528;6.982;2022-11-02T01:54:15;67720;;;12.38;100
51417;BME280;50158;51.528;6.982;2022-11-02T01:55:18;67720;;;12.44;100
51417;BME280;50158;51.528;6.982;2022-11-02T01:56:15;67730;;;12.5;100
51417;BME280;50158;51.528;6.982;2022-11-02T01:57:14;67740;;;12.62;100
51417;BME280;50158;51.528;6.982;2022-11-02T01:59:15;67740;;;12.56;100
51417;BME280;50158;51.528;6.982;2022-11-02T02:00:13;67750;;;12.72;100
51417;BME280;50158;51.528;6.982;2022-11-02T02:01:19;67750;;;12.66;100
51417;BME280;50158;51.528;6.982;2022-11-02T02:02:20;67740;;;12.61;100
51417;BME280;50158;51.528;6.982;2022-11-02T02:04:12;67760;;;12.76;100
51417;BME280;50158;51.528;6.982;2022-11-02T02:05:13;67760;;;12.77;100
51417;BME280;50158;51.528;6.982;2022-11-02T02:06:13;67770;;;12.88;100
51417;BME280;50158;51.528;6.982;2022-11-02T02:07:12;67780;;;12.96;100
51417;BME280;50158;51.528;6.982;2022-11-02T02:08:14;67790;;;13.02;100
51417;BME280;50158;51.528;6.982;2022-11-02T02:09:12;67800;;;13.11;100
51417;BME280;50158;51.528;6.982;2022-11-02T02:10:13;67800;;;13.18;100
51417;BME280;50158;51.528;6.982;2022-11-02T02:11:29;67810;;;13.23;100
51417;BME280;50158;51.528;6.982;2022-11-02T02:12:13;67810;;;13.26;100
51417;BME280;50158;51.528;6.982;2022-11-02T02:13:13;67820;;;13.33;100
51417;BME280;50158;51.528;6.982;2022-11-02T02:14:13;67820;;;13.36;100
51417;BME280;50158;51.528;6.982;2022-11-02T02:15:12;67830;;;13.37;100
51417;BME280;50158;51.528;6.982;2022-11-02T02:16:14;67830;;;13.43;100
51417;BME280;50158;51.528;6.982;2022-11-02T02:18:19;67830;;;13.45;100
51417;BME280;50158;51.528;6.982;2022-11-02T02:18:20;67830;;;13.43;100
51417;BME280;50158;51.528;6.982;2022-11-02T02:19:31;67830;;;13.44;100
51417;BME280;50158;51.528;6.982;2022-11-02T02:21:28;67830;;;13.41;100
51417;BME280;50158;51.528;6.982;2022-11-02T02:21:35;67820;;;13.36;100
51417;BME280;50158;51.528;6.982;2022-11-02T02:22:21;67820;;;13.32;100
51417;BME280;50158;51.528;6.982;2022-11-02T02:24:20;67820;;;13.32;100
51417;BME280;50158;51.528;6.982;2022-11-02T02:25:20;67820;;;13.37;100
51417;BME280;50158;51.528;6.982;2022-11-02T02:26:22;67820;;;13.35;100
51417;BME280;50158;51.528;6.982;2022-11-02T02:27:14;67820;;;13.29;100
51417;BME280;50158;51.528;6.982;2022-11-02T02:28:17;67810;;;13.24;100
51417;BME280;50158;51.528;6.982;2022-11-02T02:29:16;67810;;;13.21;100
51417;BME280;50158;51.528;6.982;2022-11-02T02:30:12;67800;;;13.14;100
51417;BME280;50158;51.528;6.982;2022-11-02T02:33:13;67800;;;13.16;100
51417;BME280;50158;51.528;6.982;2022-11-02T02:34:14;67800;;;13.16;100
51417;BME280;50158;51.528;6.982;2022-11-02T02:35:22;67800;;;13.11;100
51417;BME280;50158;51.528;6.982;2022-11-02T02:36:17;67790;;;13.07;100
51417;BME280;50158;51.528;6.982;2022-11-02T02:37:14;67790;;;13.03;100
51417;BME280;50158;51.528;6.982;2022-11-02T02:38:15;67800;;;13.11;100
51417;BME280;50158;51.528;6.982;2022-11-02T02:39:20;67810;;;13.2;100
51417;BME280;50158;51.528;6.982;2022-11-02T02:40:17;67800;;;13.13;100
51417;BME280;50158;51.528;6.982;2022-11-02T02:41:33;67790;;;13.07;100
51417;BME280;50158;51.528;6.982;2022-11-02T02:42:17;67790;;;13.09;100
51417;BME280;50158;51.528;6.982;2022-11-02T02:43:15;67800;;;13.13;100
51417;BME280;50158;51.528;6.982;2022-11-02T02:44:15;67800;;;13.13;100
51417;BME280;50158;51.528;6.982;2022-11-02T02:45:15;67790;;;13.09;100
51417;BME280;50158;51.528;6.982;2022-11-02T02:46:16;67790;;;13.05;100
51417;BME280;50158;51.528;6.982;2022-11-02T02:48:13;67780;;;12.94;100
51417;BME280;50158;51.528;6.982;2022-11-02T02:49:15;67790;;;13.03;100
51417;BME280;50158;51.528;6.982;2022-11-02T02:50:15;67800;;;13.18;100
51417;BME280;50158;51.528;6.982;2022-11-02T02:51:15;67810;;;13.24;100
51417;BME280;50158;51.528;6.982;2022-11-02T02:52:12;67810;;;13.23;100
51417;BME280;50158;51.528;6.982;2022-11-02T02:53:13;67800;;;13.12;100
51417;BME280;50158;51.528;6.982;2022-11-02T02:54:22;67790;;;13.05;100
51417;BME280;50158;51.528;6.982;2022-11-02T02:55:14;67780;;;13;100
51417;BME280;50158;51.528;6.982;2022-11-02T02:56:12;67780;;;12.93;100
51417;BME280;50158;51.528;6.982;2022-11-02T02:57:13;67790;;;13.04;100
51417;BME280;50158;51.528;6.982;2022-11-02T02:58:14;67790;;;13.05;100
51417;BME280;50158;51.528;6.982;2022-11-02T02:59:15;67800;;;13.16;100
51417;BME280;50158;51.528;6.982;2022-11-02T03:00:13;67810;;;13.19;100
51417;BME280;50158;51.528;6.982;2022-11-02T03:01:13;67810;;;13.22;100
51417;BME280;50158;51.528;6.982;2022-11-02T03:02:45;67810;;;13.22;100
51417;BME280;50158;51.528;6.982;2022-11-02T03:03:15;67800;;;13.15;100
51417;BME280;50158;51.528;6.982;2022-11-02T03:04:13;67810;;;13.2;100
51417;BME280;50158;51.528;6.982;2022-11-02T03:05:21;67810;;;13.24;100
51417;BME280;50158;51.528;6.982;2022-11-02T03:06:15;67810;;;13.27;100
51417;BME280;50158;51.528;6.982;2022-11-02T03:07:15;67810;;;13.25;100
51417;BME280;50158;51.528;6.982;2022-11-02T03:08:14;67810;;;13.26;100
51417;BME280;50158;51.528;6.982;2022-11-02T03:09:18;67820;;;13.31;100
51417;BME280;50158;51.528;6.982;2022-11-02T03:10:16;67820;;;13.35;100
51417;BME280;50158;51.528;6.982;2022-11-02T03:11:12;67830;;;13.43;100
51417;BME280;50158;51.528;6.982;2022-11-02T03:12:16;67830;;;13.47;100
51417;BME280;50158;51.528;6.982;2022-11-02T03:13:49;67840;;;13.46;100
51417;BME280;50158;51.528;6.982;2022-11-02T03:14:25;67830;;;13.44;100
51417;BME280;50158;51.528;6.982;2022-11-02T03:15:15;67840;;;13.46;100
51417;BME280;50158;51.528;6.982;2022-11-02T03:16:20;67840;;;13.46;100
51417;BME280;50158;51.528;6.982;2022-11-02T03:17:14;67840;;;13.48;100
51417;BME280;50158;51.528;6.982;2022-11-02T03:18:15;67830;;;13.46;100
51417;BME280;50158;51.528;6.982;2022-11-02T03:19:53;67830;;;13.42;100
51417;BME280;50158;51.528;6.982;2022-11-02T03:20:16;67840;;;13.46;100
51417;BME280;50158;51.528;6.982;2022-11-02T03:21:17;67830;;;13.46;100
51417;BME280;50158;51.528;6.982;2022-11-02T03:22:17;67840;;;13.52;100
51417;BME280;50158;51.528;6.982;2022-11-02T03:24:16;67840;;;13.5;100
51417;BME280;50158;51.528;6.982;2022-11-02T03:24:19;67840;;;13.53;100
51417;BME280;50158;51.528;6.982;2022-11-02T03:25:14;67840;;;13.49;100
51417;BME280;50158;51.528;6.982;2022-11-02T03:26:10;67840;;;13.53;100
51417;BME280;50158;51.528;6.982;2022-11-02T03:27:50;67840;;;13.48;100
51417;BME280;50158;51.528;6.982;2022-11-02T03:28:49;67830;;;13.45;100
51417;BME280;50158;51.528;6.982;2022-11-02T03:29:17;67830;;;13.44;100
51417;BME280;50158;51.528;6.982;2022-11-02T03:30:14;67830;;;13.46;100
51417;BME280;50158;51.528;6.982;2022-11-02T03:31:18;67840;;;13.48;100
51417;BME280;50158;51.528;6.982;2022-11-02T03:32:12;67830;;;13.44;100
51417;BME280;50158;51.528;6.982;2022-11-02T03:33:29;67840;;;13.5;100
51417;BME280;50158;51.528;6.982;2022-11-02T03:34:23;67840;;;13.53;100
51417;BME280;50158;51.528;6.982;2022-11-02T03:35:21;67840;;;13.53;100
51417;BME280;50158;51.528;6.982;2022-11-02T03:36:17;67840;;;13.51;100
51417;BME280;50158;51.528;6.982;2022-11-02T03:37:15;67840;;;13.47;100
51417;BME280;50158;51.528;6.982;2022-11-02T03:38:15;67840;;;13.51;100
51417;BME280;50158;51.528;6.982;2022-11-02T03:39:13;67830;;;13.46;100
51417;BME280;50158;51.528;6.982;2022-11-02T03:40:16;67840;;;13.47;100
51417;BME280;50158;51.528;6.982;2022-11-02T03:41:13;67830;;;13.45;100
51417;BME280;50158;51.528;6.982;2022-11-02T03:42:14;67820;;;13.36;100
51417;BME280;50158;51.528;6.982;2022-11-02T03:43:13;67820;;;13.32;100
51417;BME280;50158;51.528;6.982;2022-11-02T03:44:14;67820;;;13.32;100
51417;BME280;50158;51.528;6.982;2022-11-02T03:45:16;67820;;;13.36;100
51417;BME280;50158;51.528;6.982;2022-11-02T03:46:13;67820;;;13.33;100
51417;BME280;50158;51.528;6.982;2022-11-02T03:47:13;67820;;;13.33;100
51417;BME280;50158;51.528;6.982;2022-11-02T03:48:14;67820;;;13.28;100
51417;BME280;50158;51.528;6.982;2022-11-02T03:49:13;67820;;;13.29;100
51417;BME280;50158;51.528;6.982;2022-11-02T03:50:12;67810;;;13.25;100
51417;BME280;50158;51.528;6.982;2022-11-02T03:51:14;67810;;;13.29;100
51417;BME280;50158;51.528;6.982;2022-11-02T03:52:14;67810;;;13.25;100
51417;BME280;50158;51.528;6.982;2022-11-02T03:55:18;67810;;;13.21;100
51417;BME280;50158;51.528;6.982;2022-11-02T03:55:29;67810;;;13.24;100
51417;BME280;50158;51.528;6.982;2022-11-02T03:56:16;67810;;;13.23;100
51417;BME280;50158;51.528;6.982;2022-11-02T03:57:16;67810;;;13.22;100
51417;BME280;50158;51.528;6.982;2022-11-02T03:58:13;67810;;;13.21;100
51417;BME280;50158;51.528;6.982;2022-11-02T03:59:13;67810;;;13.23;100
51417;BME280;50158;51.528;6.982;2022-11-02T04:00:13;67800;;;13.19;100
51417;BME280;50158;51.528;6.982;2022-11-02T04:01:12;67800;;;13.13;100
51417;BME280;50158;51.528;6.982;2022-11-02T04:02:13;67790;;;13.1;100
51417;BME280;50158;51.528;6.982;2022-11-02T04:03:13;67790;;;13.07;100
51417;BME280;50158;51.528;6.982;2022-11-02T04:04:13;67790;;;13.07;100
51417;BME280;50158;51.528;6.982;2022-11-02T04:05:13;67800;;;13.1;100
51417;BME280;50158;51.528;6.982;2022-11-02T04:06:13;67790;;;13.04;100
51417;BME280;50158;51.528;6.982;2022-11-02T04:07:13;67790;;;13.03;100
51417;BME280;50158;51.528;6.982;2022-11-02T04:08:13;67790;;;13.03;100
51417;BME280;50158;51.528;6.982;2022-11-02T04:10:12;67800;;;13.12;100
51417;BME280;50158;51.528;6.982;2022-11-02T04:11:13;67800;;;13.11;100
51417;BME280;50158;51.528;6.982;2022-11-02T04:12:11;67790;;;13.07;100
51417;BME280;50158;51.528;6.982;2022-11-02T04:13:19;67790;;;13.05;100
51417;BME280;50158;51.528;6.982;2022-11-02T04:14:19;67790;;;13.08;100
51417;BME280;50158;51.528;6.982;2022-11-02T04:16:13;67790;;;13;100
51417;BME280;50158;51.528;6.982;2022-11-02T04:17:13;67780;;;12.95;100
51417;BME280;50158;51.528;6.982;2022-11-02T04:18:13;67770;;;12.9;100
51417;BME280;50158;51.528;6.982;2022-11-02T04:19:13;67780;;;12.97;100
51417;BME280;50158;51.528;6.982;2022-11-02T04:20:13;67790;;;13.01;100
51417;BME280;50158;51.528;6.982;2022-11-02T04:21:13;67790;;;13.01;100
51417;BME280;50158;51.528;6.982;2022-11-02T04:22:13;67790;;;13.03;100
51417;BME280;50158;51.528;6.982;2022-11-02T04:23:12;67790;;;13;100
51417;BME280;50158;51.528;6.982;2022-11-02T04:24:13;67780;;;12.97;100
51417;BME280;50158;51.528;6.982;2022-11-02T04:25:14;67780;;;12.95;100
51417;BME280;50158;51.528;6.982;2022-11-02T04:26:12;67770;;;12.92;100
51417;BME280;50158;51.528;6.982;2022-11-02T04:27:13;67780;;;12.94;100
51417;BME280;50158;51.528;6.982;2022-11-02T04:28:13;67780;;;12.92;100
51417;BME280;50158;51.528;6.982;2022-11-02T04:29:13;67780;;;12.93;100
51417;BME280;50158;51.528;6.982;2022-11-02T04:30:13;67770;;;12.87;100
51417;BME280;50158;51.528;6.982;2022-11-02T04:31:12;67770;;;12.86;100
51417;BME280;50158;51.528;6.982;2022-11-02T04:32:13;67760;;;12.82;100
51417;BME280;50158;51.528;6.982;2022-11-02T04:33:13;67770;;;12.83;100
51417;BME280;50158;51.528;6.982;2022-11-02T04:34:13;67770;;;12.82;100
51417;BME280;50158;51.528;6.982;2022-11-02T04:35:13;67760;;;12.75;100
51417;BME280;50158;51.528;6.982;2022-11-02T04:36:12;67750;;;12.73;100
51417;BME280;50158;51.528;6.982;2022-11-02T04:37:13;67750;;;12.68;100
51417;BME280;50158;51.528;6.982;2022-11-02T04:38:12;67740;;;12.64;100
51417;BME280;50158;51.528;6.982;2022-11-02T04:39:13;67750;;;12.66;100
51417;BME280;50158;51.528;6.982;2022-11-02T04:40:12;67750;;;12.69;100
51417;BME280;50158;51.528;6.982;2022-11-02T04:41:13;67760;;;12.72;100
51417;BME280;50158;51.528;6.982;2022-11-02T04:42:12;67750;;;12.72;100
51417;BME280;50158;51.528;6.982;2022-11-02T04:43:13;67750;;;12.7;100
51417;BME280;50158;51.528;6.982;2022-11-02T04:44:13;67760;;;12.75;100
51417;BME280;50158;51.528;6.982;2022-11-02T04:45:13;67760;;;12.78;100
51417;BME280;50158;51.528;6.982;2022-11-02T04:46:13;67760;;;12.82;100
51417;BME280;50158;51.528;6.982;2022-11-02T04:47:12;67770;;;12.84;100
51417;BME280;50158;51.528;6.982;2022-11-02T04:48:12;67760;;;12.8;100
51417;BME280;50158;51.528;6.982;2022-11-02T04:50:13;67760;;;12.79;100
51417;BME280;50158;51.528;6.982;2022-11-02T04:52:13;67760;;;12.76;100
51417;BME280;50158;51.528;6.982;2022-11-02T04:53:12;67750;;;12.72;100
51417;BME280;50158;51.528;6.982;2022-11-02T04:54:13;67750;;;12.7;100
51417;BME280;50158;51.528;6.982;2022-11-02T04:56:12;67750;;;12.65;100
51417;BME280;50158;51.528;6.982;2022-11-02T04:57:19;67750;;;12.65;100
51417;BME280;50158;51.528;6.982;2022-11-02T04:58:20;67750;;;12.63;100
51417;BME280;50158;51.528;6.982;2022-11-02T04:59:20;67750;;;12.65;100
51417;BME280;50158;51.528;6.982;2022-11-02T05:00:13;67750;;;12.7;100
51417;BME280;50158;51.528;6.982;2022-11-02T05:01:13;67750;;;12.7;100
51417;BME280;50158;51.528;6.982;2022-11-02T05:02:13;67750;;;12.71;100
51417;BME280;50158;51.528;6.982;2022-11-02T05:03:13;67750;;;12.69;100
51417;BME280;50158;51.528;6.982;2022-11-02T05:04:12;67750;;;12.68;100
51417;BME280;50158;51.528;6.982;2022-11-02T05:05:13;67750;;;12.66;100
51417;BME280;50158;51.528;6.982;2022-11-02T05:06:13;67750;;;12.67;100
51417;BME280;50158;51.528;6.982;2022-11-02T05:08:13;67750;;;12.68;100
51417;BME280;50158;51.528;6.982;2022-11-02T05:10:13;67750;;;12.67;100
51417;BME280;50158;51.528;6.982;2022-11-02T05:11:13;67750;;;12.64;100
51417;BME280;50158;51.528;6.982;2022-11-02T05:12:12;67750;;;12.67;100
51417;BME280;50158;51.528;6.982;2022-11-02T05:13:13;67750;;;12.65;100
51417;BME280;50158;51.528;6.982;2022-11-02T05:15:13;67750;;;12.63;100
51417;BME280;50158;51.528;6.982;2022-11-02T05:16:13;67750;;;12.65;100
51417;BME280;50158;51.528;6.982;2022-11-02T05:17:12;67740;;;12.61;100
51417;BME280;50158;51.528;6.982;2022-11-02T05:18:12;67740;;;12.6;100
51417;BME280;50158;51.528;6.982;2022-11-02T05:19:12;67740;;;12.61;100
51417;BME280;50158;51.528;6.982;2022-11-02T05:20:12;67740;;;12.61;100
51417;BME280;50158;51.528;6.982;2022-11-02T05:21:12;67740;;;12.62;100
51417;BME280;50158;51.528;6.982;2022-11-02T05:22:12;67750;;;12.64;100
51417;BME280;50158;51.528;6.982;2022-11-02T05:24:12;67740;;;12.58;100
51417;BME280;50158;51.528;6.982;2022-11-02T05:25:12;67740;;;12.58;100
51417;BME280;50158;51.528;6.982;2022-11-02T05:26:12;67740;;;12.58;100
51417;BME280;50158;51.528;6.982;2022-11-02T05:27:12;67740;;;12.61;100
51417;BME280;50158;51.528;6.982;2022-11-02T05:28:12;67750;;;12.64;100
51417;BME280;50158;51.528;6.982;2022-11-02T05:29:13;67750;;;12.72;100
51417;BME280;50158;51.528;6.982;2022-11-02T05:30:12;67750;;;12.73;100
51417;BME280;50158;51.528;6.982;2022-11-02T05:31:12;67750;;;12.66;100
51417;BME280;50158;51.528;6.982;2022-11-02T05:32:13;67740;;;12.63;100
51417;BME280;50158;51.528;6.982;2022-11-02T05:33:12;67730;;;12.54;100
51417;BME280;50158;51.528;6.982;2022-11-02T05:34:13;67730;;;12.52;100
51417;BME280;50158;51.528;6.982;2022-11-02T05:35:13;67730;;;12.52;100
51417;BME280;50158;51.528;6.982;2022-11-02T05:36:13;67740;;;12.54;100
51417;BME280;50158;51.528;6.982;2022-11-02T05:37:13;67740;;;12.56;100
51417;BME280;50158;51.528;6.982;2022-11-02T05:38:13;67740;;;12.57;100
51417;BME280;50158;51.528;6.982;2022-11-02T05:39:12;67740;;;12.55;100
51417;BME280;50158;51.528;6.982;2022-11-02T05:40:12;67730;;;12.51;100
51417;BME280;50158;51.528;6.982;2022-11-02T05:41:11;67730;;;12.49;100
51417;BME280;50158;51.528;6.982;2022-11-02T05:42:12;67730;;;12.49;100
51417;BME280;50158;51.528;6.982;2022-11-02T05:43:13;67730;;;12.5;100
51417;BME280;50158;51.528;6.982;2022-11-02T05:44:13;67720;;;12.44;100
51417;BME280;50158;51.528;6.982;2022-11-02T05:45:13;67720;;;12.41;100
51417;BME280;50158;51.528;6.982;2022-11-02T05:46:13;67720;;;12.4;100
51417;BME280;50158;51.528;6.982;2022-11-02T05:47:13;67720;;;12.4;100
51417;BME280;50158;51.528;6.982;2022-11-02T05:49:13;67720;;;12.38;100
51417;BME280;50158;51.528;6.982;2022-11-02T05:50:19;67710;;;12.32;100
51417;BME280;50158;51.528;6.982;2022-11-02T05:51:26;67710;;;12.31;100
51417;BME280;50158;51.528;6.982;2022-11-02T05:52:19;67720;;;12.36;100
51417;BME280;50158;51.528;6.982;2022-11-02T05:54:12;67720;;;12.42;100
51417;BME280;50158;51.528;6.982;2022-11-02T05:55:13;67720;;;12.37;100
51417;BME280;50158;51.528;6.982;2022-11-02T05:56:12;67710;;;12.35;100
51417;BME280;50158;51.528;6.982;2022-11-02T05:57:13;67710;;;12.34;100
51417;BME280;50158;51.528;6.982;2022-11-02T05:58:12;67710;;;12.32;100
51417;BME280;50158;51.528;6.982;2022-11-02T05:59:12;67710;;;12.29;100
51417;BME280;50158;51.528;6.982;2022-11-02T06:00:12;67710;;;12.34;100
51417;BME280;50158;51.528;6.982;2022-11-02T06:01:12;67720;;;12.38;100